レシフェ の空港の天気 - METARとTAF

レシフェ・グアララペス国際空港 ( SBRF / REC ) - ブラジル ペルナンブーコ州レシフェ
飛行場実況気象(Metar)
観測時間04/25 11:00 BRT (04/25 14:00 UTC)
風向・風速不定 2m/s
視程10km以上
天気現象
少しの雲 雲底高度 700m
全天を覆う雲 雲底高度 3050m
気温27℃
湿度79%
気圧1015hPa
METARSBRF 251400Z VRB03KT 9999 FEW023 OVC100 27/23 Q1015
過去の天気等 Google飛行場航空写真 Wunderground天気予報

過去48時間のMETAR

飛行場予報(TAF)
発表時間: 4/25 07:00 BRT (4/25 10:00 UTC)
予報対象時間: 25日9時 BRT ~ 26日9時 BRT
風向・風速南南東 5m/s
視程8,000m
全天の8割程度の雲 雲底高度 490m
25日9時 BRT ~ 25日13時 BRT に一時的に
視程4,000m
天気現象
全天の8割程度の雲 雲底高度 300m
25日22時 BRT ~ 25日24時 BRT に徐々に
風向・風速南 4m/s
TAF SBRF 251000Z 2512/2612 15010KT 8000 BKN016 TX29/2515Z TN24/2608Z
TEMPO 2512/2516 4000 RA BKN010
BECMG 2601/2603 18007KT RMK PCH